sensor_id;sensor_type;location;lat;lon;timestamp;P1;durP1;ratioP1;P2;durP2;ratioP2
78774;SDS011;68119;43.398;3.676;2023-03-11T00:00:00;12.55;;;3.70;;
78774;SDS011;68119;43.398;3.676;2023-03-11T00:02:33;13.10;;;3.85;;
78774;SDS011;68119;43.398;3.676;2023-03-11T00:04:58;14.18;;;4.05;;
78774;SDS011;68119;43.398;3.676;2023-03-11T00:07:24;13.60;;;3.63;;
78774;SDS011;68119;43.398;3.676;2023-03-11T00:09:50;13.15;;;3.97;;
78774;SDS011;68119;43.398;3.676;2023-03-11T00:12:18;17.65;;;4.15;;
78774;SDS011;68119;43.398;3.676;2023-03-11T00:14:47;16.60;;;4.50;;
78774;SDS011;68119;43.398;3.676;2023-03-11T00:19:46;17.45;;;4.32;;
78774;SDS011;68119;43.398;3.676;2023-03-11T00:22:18;22.08;;;4.78;;
78774;SDS011;68119;43.398;3.676;2023-03-11T00:24:48;18.40;;;4.78;;
78774;SDS011;68119;43.398;3.676;2023-03-11T00:27:20;17.80;;;5.20;;
78774;SDS011;68119;43.398;3.676;2023-03-11T00:29:51;19.05;;;5.57;;
78774;SDS011;68119;43.398;3.676;2023-03-11T00:32:19;24.45;;;5.75;;
78774;SDS011;68119;43.398;3.676;2023-03-11T00:34:45;20.05;;;5.60;;
78774;SDS011;68119;43.398;3.676;2023-03-11T00:37:11;17.27;;;4.75;;
78774;SDS011;68119;43.398;3.676;2023-03-11T00:39:39;17.30;;;5.25;;
78774;SDS011;68119;43.398;3.676;2023-03-11T00:42:05;12.88;;;4.30;;
78774;SDS011;68119;43.398;3.676;2023-03-11T00:44:33;21.52;;;4.82;;
78774;SDS011;68119;43.398;3.676;2023-03-11T00:46:58;15.77;;;4.30;;
78774;SDS011;68119;43.398;3.676;2023-03-11T00:49:26;19.08;;;4.75;;
78774;SDS011;68119;43.398;3.676;2023-03-11T00:51:55;18.45;;;4.68;;
78774;SDS011;68119;43.398;3.676;2023-03-11T00:54:26;19.13;;;4.10;;
78774;SDS011;68119;43.398;3.676;2023-03-11T00:56:54;12.05;;;4.40;;
78774;SDS011;68119;43.398;3.676;2023-03-11T00:59:23;16.63;;;3.70;;
78774;SDS011;68119;43.398;3.676;2023-03-11T01:01:49;14.73;;;4.40;;
78774;SDS011;68119;43.398;3.676;2023-03-11T01:04:17;11.30;;;3.95;;
78774;SDS011;68119;43.398;3.676;2023-03-11T01:06:46;10.57;;;3.70;;
78774;SDS011;68119;43.398;3.676;2023-03-11T01:09:12;11.50;;;3.33;;
78774;SDS011;68119;43.398;3.676;2023-03-11T01:11:44;11.77;;;3.38;;
78774;SDS011;68119;43.398;3.676;2023-03-11T01:14:12;9.02;;;3.13;;
78774;SDS011;68119;43.398;3.676;2023-03-11T01:16:45;10.75;;;3.67;;
78774;SDS011;68119;43.398;3.676;2023-03-11T01:19:13;12.40;;;3.53;;
78774;SDS011;68119;43.398;3.676;2023-03-11T01:21:39;12.15;;;3.53;;
78774;SDS011;68119;43.398;3.676;2023-03-11T01:24:04;7.32;;;3.00;;
78774;SDS011;68119;43.398;3.676;2023-03-11T01:26:30;8.45;;;3.28;;
78774;SDS011;68119;43.398;3.676;2023-03-11T01:28:58;8.73;;;3.13;;
78774;SDS011;68119;43.398;3.676;2023-03-11T01:31:24;6.88;;;2.85;;
78774;SDS011;68119;43.398;3.676;2023-03-11T01:33:52;11.30;;;2.80;;
78774;SDS011;68119;43.398;3.676;2023-03-11T01:36:18;6.93;;;2.78;;
78774;SDS011;68119;43.398;3.676;2023-03-11T01:38:46;11.45;;;3.08;;
78774;SDS011;68119;43.398;3.676;2023-03-11T01:41:12;6.63;;;2.67;;
78774;SDS011;68119;43.398;3.676;2023-03-11T01:48:47;7.53;;;2.30;;
78774;SDS011;68119;43.398;3.676;2023-03-11T01:51:37;5.22;;;2.60;;
78774;SDS011;68119;43.398;3.676;2023-03-11T01:54:10;3.57;;;1.70;;
78774;SDS011;68119;43.398;3.676;2023-03-11T01:56:39;3.03;;;1.52;;
78774;SDS011;68119;43.398;3.676;2023-03-11T01:59:10;3.40;;;1.60;;
78774;SDS011;68119;43.398;3.676;2023-03-11T02:02:01;10.82;;;7.93;;
78774;SDS011;68119;43.398;3.676;2023-03-11T02:04:33;7.80;;;5.28;;
78774;SDS011;68119;43.398;3.676;2023-03-11T02:07:00;5.40;;;3.78;;
78774;SDS011;68119;43.398;3.676;2023-03-11T02:09:27;4.03;;;2.38;;
78774;SDS011;68119;43.398;3.676;2023-03-11T02:11:53;6.65;;;4.53;;
78774;SDS011;68119;43.398;3.676;2023-03-11T02:14:19;9.13;;;6.63;;
78774;SDS011;68119;43.398;3.676;2023-03-11T02:16:51;4.63;;;2.30;;
78774;SDS011;68119;43.398;3.676;2023-03-11T02:21:58;6.60;;;2.03;;
78774;SDS011;68119;43.398;3.676;2023-03-11T02:29:27;5.07;;;1.63;;
78774;SDS011;68119;43.398;3.676;2023-03-11T02:31:54;6.93;;;2.00;;
78774;SDS011;68119;43.398;3.676;2023-03-11T02:34:24;3.38;;;1.90;;
78774;SDS011;68119;43.398;3.676;2023-03-11T02:36:52;5.47;;;2.20;;
78774;SDS011;68119;43.398;3.676;2023-03-11T02:44:47;5.32;;;2.50;;
78774;SDS011;68119;43.398;3.676;2023-03-11T02:47:21;5.22;;;2.40;;
78774;SDS011;68119;43.398;3.676;2023-03-11T02:49:50;5.70;;;2.70;;
78774;SDS011;68119;43.398;3.676;2023-03-11T02:52:16;10.10;;;2.70;;
78774;SDS011;68119;43.398;3.676;2023-03-11T02:54:43;7.05;;;2.90;;
78774;SDS011;68119;43.398;3.676;2023-03-11T02:57:14;7.55;;;3.03;;
78774;SDS011;68119;43.398;3.676;2023-03-11T02:59:40;10.00;;;3.40;;
78774;SDS011;68119;43.398;3.676;2023-03-11T03:02:06;7.20;;;3.17;;
78774;SDS011;68119;43.398;3.676;2023-03-11T03:04:34;11.60;;;3.70;;
78774;SDS011;68119;43.398;3.676;2023-03-11T03:07:00;9.27;;;3.17;;
78774;SDS011;68119;43.398;3.676;2023-03-11T03:09:25;7.32;;;3.00;;
78774;SDS011;68119;43.398;3.676;2023-03-11T03:11:51;12.57;;;4.00;;
78774;SDS011;68119;43.398;3.676;2023-03-11T03:14:20;11.60;;;3.75;;
78774;SDS011;68119;43.398;3.676;2023-03-11T03:16:49;7.65;;;3.50;;
78774;SDS011;68119;43.398;3.676;2023-03-11T03:19:16;12.43;;;3.72;;
78774;SDS011;68119;43.398;3.676;2023-03-11T03:21:47;11.13;;;3.65;;
78774;SDS011;68119;43.398;3.676;2023-03-11T03:24:16;14.50;;;3.78;;
78774;SDS011;68119;43.398;3.676;2023-03-11T03:26:42;10.82;;;3.63;;
78774;SDS011;68119;43.398;3.676;2023-03-11T03:29:11;10.73;;;3.50;;
78774;SDS011;68119;43.398;3.676;2023-03-11T03:31:37;9.68;;;3.30;;
78774;SDS011;68119;43.398;3.676;2023-03-11T03:34:05;8.65;;;3.30;;
78774;SDS011;68119;43.398;3.676;2023-03-11T03:39:02;11.32;;;3.45;;
78774;SDS011;68119;43.398;3.676;2023-03-11T03:41:28;10.70;;;3.78;;
78774;SDS011;68119;43.398;3.676;2023-03-11T03:44:00;5.25;;;2.50;;
78774;SDS011;68119;43.398;3.676;2023-03-11T03:46:25;8.73;;;3.20;;
78774;SDS011;68119;43.398;3.676;2023-03-11T03:48:51;9.27;;;3.47;;
78774;SDS011;68119;43.398;3.676;2023-03-11T03:51:19;7.70;;;3.10;;
78774;SDS011;68119;43.398;3.676;2023-03-11T03:53:50;8.13;;;2.88;;
78774;SDS011;68119;43.398;3.676;2023-03-11T03:56:16;13.35;;;3.35;;
78774;SDS011;68119;43.398;3.676;2023-03-11T03:58:44;8.52;;;3.05;;
78774;SDS011;68119;43.398;3.676;2023-03-11T04:01:10;9.05;;;2.95;;
78774;SDS011;68119;43.398;3.676;2023-03-11T04:03:39;6.80;;;2.85;;
78774;SDS011;68119;43.398;3.676;2023-03-11T04:08:54;6.88;;;2.60;;
78774;SDS011;68119;43.398;3.676;2023-03-11T04:11:20;7.13;;;2.20;;
78774;SDS011;68119;43.398;3.676;2023-03-11T04:14:06;8.02;;;2.75;;
78774;SDS011;68119;43.398;3.676;2023-03-11T04:16:32;10.38;;;2.72;;
78774;SDS011;68119;43.398;3.676;2023-03-11T04:18:57;6.03;;;2.30;;
78774;SDS011;68119;43.398;3.676;2023-03-11T04:21:23;6.10;;;2.30;;
78774;SDS011;68119;43.398;3.676;2023-03-11T04:23:51;8.25;;;2.50;;
78774;SDS011;68119;43.398;3.676;2023-03-11T04:26:17;9.25;;;2.42;;
78774;SDS011;68119;43.398;3.676;2023-03-11T04:28:42;6.32;;;2.50;;
78774;SDS011;68119;43.398;3.676;2023-03-11T04:31:09;7.60;;;2.53;;
78774;SDS011;68119;43.398;3.676;2023-03-11T04:33:41;7.70;;;2.83;;
78774;SDS011;68119;43.398;3.676;2023-03-11T04:36:13;6.93;;;2.50;;
78774;SDS011;68119;43.398;3.676;2023-03-11T04:38:41;7.95;;;2.70;;
78774;SDS011;68119;43.398;3.676;2023-03-11T04:41:09;6.50;;;2.45;;
78774;SDS011;68119;43.398;3.676;2023-03-11T04:43:36;6.07;;;2.70;;
78774;SDS011;68119;43.398;3.676;2023-03-11T04:46:05;6.35;;;2.80;;
78774;SDS011;68119;43.398;3.676;2023-03-11T04:48:31;7.45;;;3.00;;
78774;SDS011;68119;43.398;3.676;2023-03-11T04:51:01;8.38;;;2.50;;
78774;SDS011;68119;43.398;3.676;2023-03-11T04:53:27;7.05;;;2.33;;
78774;SDS011;68119;43.398;3.676;2023-03-11T04:55:53;6.13;;;2.40;;
78774;SDS011;68119;43.398;3.676;2023-03-11T04:58:21;7.88;;;2.65;;
78774;SDS011;68119;43.398;3.676;2023-03-11T05:00:50;6.95;;;2.67;;
78774;SDS011;68119;43.398;3.676;2023-03-11T05:03:16;5.10;;;2.10;;
78774;SDS011;68119;43.398;3.676;2023-03-11T05:05:47;6.18;;;2.40;;
78774;SDS011;68119;43.398;3.676;2023-03-11T05:08:21;4.95;;;2.15;;
78774;SDS011;68119;43.398;3.676;2023-03-11T05:10:47;4.95;;;2.03;;
78774;SDS011;68119;43.398;3.676;2023-03-11T05:13:14;8.15;;;2.53;;
78774;SDS011;68119;43.398;3.676;2023-03-11T05:15:44;4.03;;;2.13;;
78774;SDS011;68119;43.398;3.676;2023-03-11T05:18:13;5.38;;;2.38;;
78774;SDS011;68119;43.398;3.676;2023-03-11T05:20:39;6.57;;;2.40;;
78774;SDS011;68119;43.398;3.676;2023-03-11T05:23:07;4.50;;;2.38;;
78774;SDS011;68119;43.398;3.676;2023-03-11T05:25:33;4.95;;;1.83;;
78774;SDS011;68119;43.398;3.676;2023-03-11T05:28:04;3.45;;;1.80;;
78774;SDS011;68119;43.398;3.676;2023-03-11T05:30:32;4.50;;;2.20;;
78774;SDS011;68119;43.398;3.676;2023-03-11T05:33:01;4.80;;;1.90;;
78774;SDS011;68119;43.398;3.676;2023-03-11T05:35:27;6.50;;;2.13;;
78774;SDS011;68119;43.398;3.676;2023-03-11T05:37:54;9.02;;;3.42;;
78774;SDS011;68119;43.398;3.676;2023-03-11T05:40:20;7.43;;;3.17;;
78774;SDS011;68119;43.398;3.676;2023-03-11T05:42:46;9.25;;;2.90;;
78774;SDS011;68119;43.398;3.676;2023-03-11T05:45:16;8.18;;;2.70;;
78774;SDS011;68119;43.398;3.676;2023-03-11T05:47:44;5.18;;;1.92;;
78774;SDS011;68119;43.398;3.676;2023-03-11T05:50:10;6.10;;;2.28;;
78774;SDS011;68119;43.398;3.676;2023-03-11T05:52:36;6.43;;;2.42;;
78774;SDS011;68119;43.398;3.676;2023-03-11T05:55:05;5.40;;;2.17;;
78774;SDS011;68119;43.398;3.676;2023-03-11T05:57:33;8.07;;;2.60;;
78774;SDS011;68119;43.398;3.676;2023-03-11T06:00:01;8.35;;;2.42;;
78774;SDS011;68119;43.398;3.676;2023-03-11T06:02:29;8.35;;;2.35;;
78774;SDS011;68119;43.398;3.676;2023-03-11T06:04:55;5.60;;;1.88;;
78774;SDS011;68119;43.398;3.676;2023-03-11T06:07:24;9.98;;;2.33;;
78774;SDS011;68119;43.398;3.676;2023-03-11T06:09:55;8.13;;;2.58;;
78774;SDS011;68119;43.398;3.676;2023-03-11T06:12:20;5.00;;;2.28;;
78774;SDS011;68119;43.398;3.676;2023-03-11T06:14:46;5.93;;;2.30;;
78774;SDS011;68119;43.398;3.676;2023-03-11T06:17:12;6.88;;;2.35;;
78774;SDS011;68119;43.398;3.676;2023-03-11T06:19:37;10.35;;;2.30;;
78774;SDS011;68119;43.398;3.676;2023-03-11T06:22:03;5.25;;;2.05;;
78774;SDS011;68119;43.398;3.676;2023-03-11T06:24:29;3.47;;;1.90;;
78774;SDS011;68119;43.398;3.676;2023-03-11T06:26:57;6.68;;;2.50;;
78774;SDS011;68119;43.398;3.676;2023-03-11T06:29:25;5.15;;;2.42;;
78774;SDS011;68119;43.398;3.676;2023-03-11T06:31:50;5.03;;;2.20;;
78774;SDS011;68119;43.398;3.676;2023-03-11T06:34:18;5.47;;;2.58;;
78774;SDS011;68119;43.398;3.676;2023-03-11T06:39:13;5.60;;;2.20;;
78774;SDS011;68119;43.398;3.676;2023-03-11T06:41:43;7.18;;;1.83;;
78774;SDS011;68119;43.398;3.676;2023-03-11T06:44:17;4.82;;;1.67;;
78774;SDS011;68119;43.398;3.676;2023-03-11T06:46:50;8.50;;;2.40;;
78774;SDS011;68119;43.398;3.676;2023-03-11T06:49:16;7.68;;;2.35;;
78774;SDS011;68119;43.398;3.676;2023-03-11T06:51:44;6.15;;;1.92;;
78774;SDS011;68119;43.398;3.676;2023-03-11T06:54:12;5.30;;;1.80;;
78774;SDS011;68119;43.398;3.676;2023-03-11T06:56:41;5.85;;;1.92;;
78774;SDS011;68119;43.398;3.676;2023-03-11T06:59:10;14.60;;;1.80;;
78774;SDS011;68119;43.398;3.676;2023-03-11T07:01:38;5.20;;;1.80;;
78774;SDS011;68119;43.398;3.676;2023-03-11T07:04:07;5.30;;;1.52;;
78774;SDS011;68119;43.398;3.676;2023-03-11T07:06:37;4.43;;;1.73;;
78774;SDS011;68119;43.398;3.676;2023-03-11T07:09:03;5.03;;;1.77;;
78774;SDS011;68119;43.398;3.676;2023-03-11T07:11:34;7.80;;;1.70;;
78774;SDS011;68119;43.398;3.676;2023-03-11T07:13:59;2.55;;;1.48;;
78774;SDS011;68119;43.398;3.676;2023-03-11T07:16:28;2.03;;;1.08;;
78774;SDS011;68119;43.398;3.676;2023-03-11T07:18:57;3.38;;;1.38;;
78774;SDS011;68119;43.398;3.676;2023-03-11T07:21:29;6.50;;;1.50;;
78774;SDS011;68119;43.398;3.676;2023-03-11T07:23:56;5.28;;;1.73;;
78774;SDS011;68119;43.398;3.676;2023-03-11T07:26:29;2.90;;;1.60;;
78774;SDS011;68119;43.398;3.676;2023-03-11T07:28:57;2.03;;;1.25;;
78774;SDS011;68119;43.398;3.676;2023-03-11T07:31:24;3.13;;;1.70;;
78774;SDS011;68119;43.398;3.676;2023-03-11T07:33:55;2.92;;;1.60;;
78774;SDS011;68119;43.398;3.676;2023-03-11T07:36:24;4.05;;;1.50;;
78774;SDS011;68119;43.398;3.676;2023-03-11T07:38:53;7.35;;;1.95;;
78774;SDS011;68119;43.398;3.676;2023-03-11T07:41:28;8.32;;;2.00;;
78774;SDS011;68119;43.398;3.676;2023-03-11T07:43:57;4.25;;;1.70;;
78774;SDS011;68119;43.398;3.676;2023-03-11T07:46:27;4.32;;;1.73;;
78774;SDS011;68119;43.398;3.676;2023-03-11T07:48:54;2.72;;;1.50;;
78774;SDS011;68119;43.398;3.676;2023-03-11T07:51:21;2.05;;;1.45;;
78774;SDS011;68119;43.398;3.676;2023-03-11T07:53:52;5.18;;;1.60;;
78774;SDS011;68119;43.398;3.676;2023-03-11T07:56:20;3.72;;;1.60;;
78774;SDS011;68119;43.398;3.676;2023-03-11T07:58:47;4.03;;;1.80;;
78774;SDS011;68119;43.398;3.676;2023-03-11T08:01:17;5.57;;;1.80;;
78774;SDS011;68119;43.398;3.676;2023-03-11T08:03:44;5.57;;;1.77;;
78774;SDS011;68119;43.398;3.676;2023-03-11T08:06:15;3.40;;;1.60;;
78774;SDS011;68119;43.398;3.676;2023-03-11T08:08:46;4.03;;;1.75;;
78774;SDS011;68119;43.398;3.676;2023-03-11T08:11:18;2.30;;;1.50;;
78774;SDS011;68119;43.398;3.676;2023-03-11T08:13:51;2.63;;;1.17;;
78774;SDS011;68119;43.398;3.676;2023-03-11T08:16:22;2.95;;;1.50;;
78774;SDS011;68119;43.398;3.676;2023-03-11T08:18:51;4.00;;;1.67;;
78774;SDS011;68119;43.398;3.676;2023-03-11T08:21:21;4.70;;;1.50;;
78774;SDS011;68119;43.398;3.676;2023-03-11T08:23:49;3.03;;;1.63;;
78774;SDS011;68119;43.398;3.676;2023-03-11T08:26:18;2.60;;;1.40;;
78774;SDS011;68119;43.398;3.676;2023-03-11T08:28:46;3.38;;;1.50;;
78774;SDS011;68119;43.398;3.676;2023-03-11T08:31:19;2.88;;;1.50;;
78774;SDS011;68119;43.398;3.676;2023-03-11T08:33:52;1.60;;;1.20;;
78774;SDS011;68119;43.398;3.676;2023-03-11T08:36:26;3.33;;;1.50;;
78774;SDS011;68119;43.398;3.676;2023-03-11T08:38:58;2.60;;;1.40;;
78774;SDS011;68119;43.398;3.676;2023-03-11T08:41:24;3.17;;;1.73;;
78774;SDS011;68119;43.398;3.676;2023-03-11T08:43:51;2.58;;;1.42;;
78774;SDS011;68119;43.398;3.676;2023-03-11T08:46:24;1.38;;;1.10;;
78774;SDS011;68119;43.398;3.676;2023-03-11T08:49:02;2.92;;;1.25;;
78774;SDS011;68119;43.398;3.676;2023-03-11T08:51:30;2.40;;;1.10;;
78774;SDS011;68119;43.398;3.676;2023-03-11T08:53:57;4.78;;;1.30;;
78774;SDS011;68119;43.398;3.676;2023-03-11T08:56:28;3.92;;;1.60;;
78774;SDS011;68119;43.398;3.676;2023-03-11T08:58:54;3.50;;;1.35;;
78774;SDS011;68119;43.398;3.676;2023-03-11T09:01:25;4.25;;;1.40;;
78774;SDS011;68119;43.398;3.676;2023-03-11T09:03:53;1.40;;;0.97;;
78774;SDS011;68119;43.398;3.676;2023-03-11T09:06:22;1.98;;;0.90;;
78774;SDS011;68119;43.398;3.676;2023-03-11T09:08:50;4.35;;;1.25;;
78774;SDS011;68119;43.398;3.676;2023-03-11T09:11:21;2.17;;;1.00;;
78774;SDS011;68119;43.398;3.676;2023-03-11T09:13:47;1.50;;;0.90;;
78774;SDS011;68119;43.398;3.676;2023-03-11T09:16:21;4.30;;;1.15;;
78774;SDS011;68119;43.398;3.676;2023-03-11T09:18:47;1.80;;;0.60;;
78774;SDS011;68119;43.398;3.676;2023-03-11T09:21:16;3.00;;;0.88;;
78774;SDS011;68119;43.398;3.676;2023-03-11T09:23:42;1.35;;;0.63;;
78774;SDS011;68119;43.398;3.676;2023-03-11T09:26:08;2.22;;;0.60;;
78774;SDS011;68119;43.398;3.676;2023-03-11T09:28:34;1.60;;;0.80;;
78774;SDS011;68119;43.398;3.676;2023-03-11T09:31:08;4.53;;;0.77;;
78774;SDS011;68119;43.398;3.676;2023-03-11T09:33:37;2.22;;;0.80;;
78774;SDS011;68119;43.398;3.676;2023-03-11T09:36:11;3.22;;;0.63;;
78774;SDS011;68119;43.398;3.676;2023-03-11T09:38:44;2.80;;;0.93;;
78774;SDS011;68119;43.398;3.676;2023-03-11T09:49:02;1.08;;;0.80;;
78774;SDS011;68119;43.398;3.676;2023-03-11T09:51:35;1.90;;;0.80;;
78774;SDS011;68119;43.398;3.676;2023-03-11T09:54:13;1.60;;;0.55;;
78774;SDS011;68119;43.398;3.676;2023-03-11T09:56:40;0.80;;;0.50;;
78774;SDS011;68119;43.398;3.676;2023-03-11T10:01:41;0.75;;;0.50;;
78774;SDS011;68119;43.398;3.676;2023-03-11T10:06:48;1.25;;;0.65;;
78774;SDS011;68119;43.398;3.676;2023-03-11T10:12:16;1.42;;;0.57;;
78774;SDS011;68119;43.398;3.676;2023-03-11T10:25:41;3.50;;;0.80;;
78774;SDS011;68119;43.398;3.676;2023-03-11T10:28:19;0.73;;;0.60;;
78774;SDS011;68119;43.398;3.676;2023-03-11T10:30:50;2.40;;;0.60;;
78774;SDS011;68119;43.398;3.676;2023-03-11T10:33:43;1.25;;;0.57;;
78774;SDS011;68119;43.398;3.676;2023-03-11T10:36:21;3.25;;;0.80;;
78774;SDS011;68119;43.398;3.676;2023-03-11T10:38:52;0.60;;;0.45;;
78774;SDS011;68119;43.398;3.676;2023-03-11T10:46:46;2.42;;;0.80;;
78774;SDS011;68119;43.398;3.676;2023-03-11T10:49:15;1.23;;;0.70;;
78774;SDS011;68119;43.398;3.676;2023-03-11T10:51:44;3.30;;;0.70;;
78774;SDS011;68119;43.398;3.676;2023-03-11T10:54:21;1.10;;;0.60;;
78774;SDS011;68119;43.398;3.676;2023-03-11T10:56:53;0.85;;;0.40;;
78774;SDS011;68119;43.398;3.676;2023-03-11T11:04:26;0.77;;;0.50;;
78774;SDS011;68119;43.398;3.676;2023-03-11T11:07:36;2.63;;;0.90;;
78774;SDS011;68119;43.398;3.676;2023-03-11T11:12:52;1.90;;;0.60;;
78774;SDS011;68119;43.398;3.676;2023-03-11T11:15:41;0.68;;;0.50;;
78774;SDS011;68119;43.398;3.676;2023-03-11T11:18:17;2.08;;;0.55;;
78774;SDS011;68119;43.398;3.676;2023-03-11T11:21:32;0.90;;;0.50;;
78774;SDS011;68119;43.398;3.676;2023-03-11T11:29:33;0.60;;;0.38;;
78774;SDS011;68119;43.398;3.676;2023-03-11T11:32:18;0.90;;;0.40;;
78774;SDS011;68119;43.398;3.676;2023-03-11T11:37:26;0.40;;;0.38;;
78774;SDS011;68119;43.398;3.676;2023-03-11T11:40:09;0.70;;;0.30;;
78774;SDS011;68119;43.398;3.676;2023-03-11T11:42:46;0.70;;;0.30;;
78774;SDS011;68119;43.398;3.676;2023-03-11T11:45:27;1.52;;;0.35;;
78774;SDS011;68119;43.398;3.676;2023-03-11T11:47:56;0.40;;;0.30;;
78774;SDS011;68119;43.398;3.676;2023-03-11T11:50:32;0.85;;;0.40;;
78774;SDS011;68119;43.398;3.676;2023-03-11T11:53:10;1.20;;;0.70;;
78774;SDS011;68119;43.398;3.676;2023-03-11T11:55:51;1.52;;;0.50;;
78774;SDS011;68119;43.398;3.676;2023-03-11T11:58:20;0.60;;;0.60;;
78774;SDS011;68119;43.398;3.676;2023-03-11T12:01:07;2.17;;;0.70;;
78774;SDS011;68119;43.398;3.676;2023-03-11T12:03:43;2.53;;;0.90;;
78774;SDS011;68119;43.398;3.676;2023-03-11T12:08:55;3.38;;;0.80;;
78774;SDS011;68119;43.398;3.676;2023-03-11T12:17:03;2.95;;;0.50;;
78774;SDS011;68119;43.398;3.676;2023-03-11T12:19:38;2.97;;;0.60;;
78774;SDS011;68119;43.398;3.676;2023-03-11T12:22:54;2.90;;;0.63;;
78774;SDS011;68119;43.398;3.676;2023-03-11T12:30:17;2.33;;;0.50;;
78774;SDS011;68119;43.398;3.676;2023-03-11T12:32:50;1.13;;;0.60;;
78774;SDS011;68119;43.398;3.676;2023-03-11T12:35:42;1.55;;;0.65;;
78774;SDS011;68119;43.398;3.676;2023-03-11T12:38:16;3.75;;;0.68;;
78774;SDS011;68119;43.398;3.676;2023-03-11T12:40:56;1.08;;;0.38;;
78774;SDS011;68119;43.398;3.676;2023-03-11T12:46:16;0.85;;;0.40;;
78774;SDS011;68119;43.398;3.676;2023-03-11T12:59:52;1.30;;;0.85;;
78774;SDS011;68119;43.398;3.676;2023-03-11T13:05:09;2.47;;;0.73;;
78774;SDS011;68119;43.398;3.676;2023-03-11T13:07:52;1.00;;;0.60;;
78774;SDS011;68119;43.398;3.676;2023-03-11T13:10:35;1.30;;;0.50;;
78774;SDS011;68119;43.398;3.676;2023-03-11T13:15:54;2.88;;;0.52;;
78774;SDS011;68119;43.398;3.676;2023-03-11T13:18:29;1.67;;;0.47;;
78774;SDS011;68119;43.398;3.676;2023-03-11T13:21:02;0.90;;;0.70;;
78774;SDS011;68119;43.398;3.676;2023-03-11T13:23:37;2.17;;;0.88;;
78774;SDS011;68119;43.398;3.676;2023-03-11T13:37:47;1.83;;;1.00;;
78774;SDS011;68119;43.398;3.676;2023-03-11T13:40:40;1.42;;;0.55;;
78774;SDS011;68119;43.398;3.676;2023-03-11T13:43:14;0.80;;;0.38;;
78774;SDS011;68119;43.398;3.676;2023-03-11T13:48:34;2.15;;;0.70;;
78774;SDS011;68119;43.398;3.676;2023-03-11T13:54:07;2.47;;;0.93;;
78774;SDS011;68119;43.398;3.676;2023-03-11T13:56:50;2.05;;;0.70;;
78774;SDS011;68119;43.398;3.676;2023-03-11T13:59:22;2.63;;;1.07;;
78774;SDS011;68119;43.398;3.676;2023-03-11T14:01:51;2.45;;;0.70;;
78774;SDS011;68119;43.398;3.676;2023-03-11T14:04:25;2.45;;;0.75;;
78774;SDS011;68119;43.398;3.676;2023-03-11T14:06:58;2.30;;;0.70;;
78774;SDS011;68119;43.398;3.676;2023-03-11T14:09:27;2.03;;;1.00;;
78774;SDS011;68119;43.398;3.676;2023-03-11T14:12:04;3.75;;;1.50;;
78774;SDS011;68119;43.398;3.676;2023-03-11T14:17:24;0.80;;;0.47;;
78774;SDS011;68119;43.398;3.676;2023-03-11T14:22:52;1.65;;;0.98;;
78774;SDS011;68119;43.398;3.676;2023-03-11T14:25:28;1.58;;;0.90;;
78774;SDS011;68119;43.398;3.676;2023-03-11T14:28:12;1.27;;;0.57;;
78774;SDS011;68119;43.398;3.676;2023-03-11T14:30:59;2.22;;;0.85;;
78774;SDS011;68119;43.398;3.676;2023-03-11T14:33:36;2.72;;;0.70;;
78774;SDS011;68119;43.398;3.676;2023-03-11T14:36:08;2.40;;;0.82;;
78774;SDS011;68119;43.398;3.676;2023-03-11T14:38:40;2.90;;;0.88;;
78774;SDS011;68119;43.398;3.676;2023-03-11T14:41:13;2.83;;;1.40;;
78774;SDS011;68119;43.398;3.676;2023-03-11T14:43:40;3.00;;;1.20;;
78774;SDS011;68119;43.398;3.676;2023-03-11T14:46:14;7.32;;;1.20;;
78774;SDS011;68119;43.398;3.676;2023-03-11T14:48:55;1.35;;;0.73;;
78774;SDS011;68119;43.398;3.676;2023-03-11T14:51:33;3.53;;;1.25;;
78774;SDS011;68119;43.398;3.676;2023-03-11T14:56:59;0.60;;;0.60;;
78774;SDS011;68119;43.398;3.676;2023-03-11T14:59:45;1.88;;;1.00;;
78774;SDS011;68119;43.398;3.676;2023-03-11T15:05:17;3.90;;;1.02;;
78774;SDS011;68119;43.398;3.676;2023-03-11T15:10:30;3.70;;;1.17;;
78774;SDS011;68119;43.398;3.676;2023-03-11T15:13:03;4.70;;;1.10;;
78774;SDS011;68119;43.398;3.676;2023-03-11T15:15:59;3.28;;;0.95;;
78774;SDS011;68119;43.398;3.676;2023-03-11T15:18:48;2.13;;;0.95;;
78774;SDS011;68119;43.398;3.676;2023-03-11T15:21:15;2.92;;;0.90;;
78774;SDS011;68119;43.398;3.676;2023-03-11T15:23:49;2.28;;;0.60;;
78774;SDS011;68119;43.398;3.676;2023-03-11T15:26:21;0.90;;;0.60;;
78774;SDS011;68119;43.398;3.676;2023-03-11T15:28:57;1.45;;;0.77;;
78774;SDS011;68119;43.398;3.676;2023-03-11T15:31:35;1.02;;;0.50;;
78774;SDS011;68119;43.398;3.676;2023-03-11T15:36:55;2.05;;;0.65;;
78774;SDS011;68119;43.398;3.676;2023-03-11T15:42:10;1.20;;;0.40;;
78774;SDS011;68119;43.398;3.676;2023-03-11T15:47:26;1.17;;;0.47;;
78774;SDS011;68119;43.398;3.676;2023-03-11T15:50:01;3.08;;;0.88;;
78774;SDS011;68119;43.398;3.676;2023-03-11T15:52:33;2.15;;;0.90;;
78774;SDS011;68119;43.398;3.676;2023-03-11T15:55:02;0.82;;;0.50;;
78774;SDS011;68119;43.398;3.676;2023-03-11T15:57:28;1.00;;;0.60;;
78774;SDS011;68119;43.398;3.676;2023-03-11T16:00:00;2.13;;;0.77;;
78774;SDS011;68119;43.398;3.676;2023-03-11T16:02:31;1.33;;;0.52;;
78774;SDS011;68119;43.398;3.676;2023-03-11T16:05:05;0.65;;;0.50;;
78774;SDS011;68119;43.398;3.676;2023-03-11T16:07:36;1.60;;;0.77;;
78774;SDS011;68119;43.398;3.676;2023-03-11T16:10:02;2.15;;;0.80;;
78774;SDS011;68119;43.398;3.676;2023-03-11T16:12:31;1.85;;;0.52;;
78774;SDS011;68119;43.398;3.676;2023-03-11T16:15:03;1.67;;;0.70;;
78774;SDS011;68119;43.398;3.676;2023-03-11T16:17:33;0.88;;;0.50;;
78774;SDS011;68119;43.398;3.676;2023-03-11T16:20:04;1.02;;;0.55;;
78774;SDS011;68119;43.398;3.676;2023-03-11T16:22:38;1.98;;;0.60;;
78774;SDS011;68119;43.398;3.676;2023-03-11T16:28:06;0.30;;;0.30;;
78774;SDS011;68119;43.398;3.676;2023-03-11T16:30:38;1.42;;;0.30;;
78774;SDS011;68119;43.398;3.676;2023-03-11T16:33:06;0.77;;;0.50;;
78774;SDS011;68119;43.398;3.676;2023-03-11T16:35:37;1.25;;;0.50;;
78774;SDS011;68119;43.398;3.676;2023-03-11T16:38:08;1.48;;;0.60;;
78774;SDS011;68119;43.398;3.676;2023-03-11T16:40:41;0.73;;;0.40;;
78774;SDS011;68119;43.398;3.676;2023-03-11T16:43:12;1.15;;;0.73;;
78774;SDS011;68119;43.398;3.676;2023-03-11T16:45:46;0.77;;;0.75;;
78774;SDS011;68119;43.398;3.676;2023-03-11T16:48:20;1.38;;;0.50;;
78774;SDS011;68119;43.398;3.676;2023-03-11T16:50:49;0.77;;;0.60;;
78774;SDS011;68119;43.398;3.676;2023-03-11T16:53:21;0.52;;;0.50;;
78774;SDS011;68119;43.398;3.676;2023-03-11T16:55:52;1.02;;;0.50;;
78774;SDS011;68119;43.398;3.676;2023-03-11T16:58:26;0.68;;;0.50;;
78774;SDS011;68119;43.398;3.676;2023-03-11T17:01:00;2.15;;;0.57;;
78774;SDS011;68119;43.398;3.676;2023-03-11T17:03:33;1.65;;;0.60;;
78774;SDS011;68119;43.398;3.676;2023-03-11T17:06:04;1.08;;;0.68;;
78774;SDS011;68119;43.398;3.676;2023-03-11T17:08:32;2.45;;;0.50;;
78774;SDS011;68119;43.398;3.676;2023-03-11T17:11:06;1.75;;;0.50;;
78774;SDS011;68119;43.398;3.676;2023-03-11T17:13:47;0.65;;;0.55;;
78774;SDS011;68119;43.398;3.676;2023-03-11T17:16:18;1.83;;;0.50;;
78774;SDS011;68119;43.398;3.676;2023-03-11T17:18:43;0.88;;;0.70;;
78774;SDS011;68119;43.398;3.676;2023-03-11T17:21:13;0.43;;;0.40;;
78774;SDS011;68119;43.398;3.676;2023-03-11T17:23:41;0.70;;;0.30;;
78774;SDS011;68119;43.398;3.676;2023-03-11T17:26:18;1.92;;;0.38;;
78774;SDS011;68119;43.398;3.676;2023-03-11T17:28:57;0.65;;;0.50;;
78774;SDS011;68119;43.398;3.676;2023-03-11T17:31:28;0.85;;;0.50;;
78774;SDS011;68119;43.398;3.676;2023-03-11T17:34:05;0.57;;;0.38;;
78774;SDS011;68119;43.398;3.676;2023-03-11T17:36:39;0.80;;;0.43;;
78774;SDS011;68119;43.398;3.676;2023-03-11T17:41:40;1.40;;;1.00;;